Time;durP1;ratioP1;P1;durP2;ratioP2;P2;SDS_P1;SDS_P2;PMS_P1;PMS_P2;Temp;Humidity;BMP_temperature;BMP_pressure;BME280_temperature;BME280_humidity;BME280_pressure;Samples;Min_cycle;Max_cycle;Signal;HPM_P1;HPM_P2
2021/08/01 00:03:02;;;;;;;11.20;5.00;;;;;;;18.04;56.86;97986.06;512010;1092;104375;-43
2021/08/01 00:13:10;;;;;;;9.43;6.10;;;;;;;17.84;57.45;97986.39;512122;1092;103140;-42
2021/08/01 00:23:18;;;;;;;7.03;4.40;;;;;;;17.73;57.88;97981.20;512135;1092;103131;-42
2021/08/01 00:33:26;;;;;;;5.03;4.53;;;;;;;17.66;58.33;97983.42;512037;1092;103451;-43
2021/08/01 00:43:34;;;;;;;8.40;5.20;;;;;;;17.53;58.77;97992.19;511890;1092;103386;-43
2021/08/01 00:53:41;;;;;;;8.55;5.68;;;;;;;17.36;59.12;97987.34;512044;1092;103168;-43
2021/08/01 01:03:47;;;;;;;10.13;5.93;;;;;;;17.14;59.60;97977.23;512232;1095;103252;-43
2021/08/01 01:13:57;;;;;;;7.27;5.43;;;;;;;16.96;59.73;97975.33;512056;1092;103917;-43
2021/08/01 01:24:07;;;;;;;10.63;6.33;;;;;;;16.97;60.32;97970.78;512763;1091;103058;-43
2021/08/01 01:44:20;;;;;;;10.25;7.15;;;;;;;16.96;61.12;97953.17;511901;1095;103389;-42
2021/08/01 01:54:26;;;;;;;;;;;;;;;16.66;61.34;97959.66;512402;1093;103515;-42
2021/08/01 02:04:34;;;;;;;8.85;6.60;;;;;;;16.49;61.65;97960.11;512163;1092;103157;-42
2021/08/01 02:14:43;;;;;;;7.93;6.53;;;;;;;16.57;61.99;97954.95;512042;1092;103425;-43
2021/08/01 02:24:53;;;;;;;9.50;5.67;;;;;;;16.67;62.55;97940.72;511982;1095;103537;-43
2021/08/01 02:35:01;;;;;;;8.75;6.60;;;;;;;16.61;62.51;97955.18;511943;1092;103509;-42
2021/08/01 02:55:18;;;;;;;11.35;7.95;;;;;;;16.29;63.49;97942.44;512029;1092;103130;-42
2021/08/01 03:05:27;;;;;;;11.63;9.37;;;;;;;16.30;64.06;97944.03;512034;1095;103473;-43
2021/08/01 03:15:35;;;;;;;13.10;9.50;;;;;;;16.46;64.13;97940.13;512141;1092;103112;-43
2021/08/01 03:25:42;;;;;;;13.75;8.00;;;;;;;16.57;64.52;97946.95;511868;1095;103508;-43
2021/08/01 03:35:50;;;;;;;15.70;9.20;;;;;;;16.68;64.51;97941.51;512117;1092;103148;-43
2021/08/01 03:45:56;;;;;;;14.43;8.97;;;;;;;16.87;64.84;97937.00;512185;1092;103026;-43
2021/08/01 04:06:10;;;;;;;22.10;11.67;;;;;;;17.23;64.83;97963.22;512008;1092;103125;-42
2021/08/01 04:16:17;;;;;;;20.40;11.95;;;;;;;17.32;65.15;97945.47;511897;1092;103138;-42
2021/08/01 04:26:26;;;;;;;17.43;10.03;;;;;;;17.54;65.04;97959.03;512027;1092;103526;-43
2021/08/01 04:36:33;;;;;;;15.30;10.43;;;;;;;17.68;65.27;97983.95;512173;1092;103134;-44
2021/08/01 04:46:40;;;;;;;17.50;10.03;;;;;;;18.01;65.41;97978.63;512333;1092;103656;-43
2021/08/01 04:56:46;;;;;;;17.90;12.00;;;;;;;18.06;65.25;97983.89;511922;1093;103122;-42
2021/08/01 05:06:54;;;;;;;17.87;13.00;;;;;;;17.92;65.46;97941.05;511869;1091;103524;-43
2021/08/01 05:17:02;;;;;;;15.37;10.57;;;;;;;17.93;65.95;97925.79;512324;1092;103151;-42
2021/08/01 05:27:10;;;;;;;23.35;13.38;;;;;;;17.90;65.71;97931.73;511996;1092;104178;-42
2021/08/01 05:37:18;;;;;;;15.35;11.35;;;;;;;18.35;66.19;97933.58;512120;1092;103084;-43
2021/08/01 05:47:25;;;;;;;15.00;10.40;;;;;;;18.85;66.33;97931.00;511935;1092;103130;-44
2021/08/01 05:57:33;;;;;;;13.35;10.28;;;;;;;19.56;66.34;97920.59;512042;1093;103138;-42
2021/08/01 06:07:41;;;;;;;8.88;7.70;;;;;;;19.96;65.47;97913.43;511946;1091;103150;-44
2021/08/01 06:17:49;;;;;;;16.35;7.38;;;;;;;19.98;64.22;97919.28;512148;1092;103108;-41
2021/08/01 06:27:55;;;;;;;14.73;8.10;;;;;;;20.09;64.20;97920.58;512103;1092;103463;-45
2021/08/01 06:38:03;;;;;;;12.03;8.30;;;;;;;20.17;64.34;97922.54;512018;1092;103111;-43
2021/08/01 06:48:11;;;;;;;10.18;7.13;;;;;;;20.32;64.26;97923.21;512095;1091;103134;-41
2021/08/01 06:58:19;;;;;;;10.40;5.40;;;;;;;20.36;63.15;97913.46;512161;1092;103189;-43
2021/08/01 07:08:27;;;;;;;9.83;5.20;;;;;;;20.18;62.86;97897.28;512249;1092;103521;-44
2021/08/01 07:18:35;;;;;;;8.28;4.95;;;;;;;19.91;61.73;97894.79;512074;1092;103130;-43
2021/08/01 07:28:43;;;;;;;7.90;5.10;;;;;;;19.78;61.83;97880.34;512148;1092;103133;-43
2021/08/01 07:38:51;;;;;;;9.10;5.30;;;;;;;19.76;61.40;97855.72;512046;1092;103134;-42
2021/08/01 07:48:58;;;;;;;6.85;4.75;;;;;;;19.85;61.22;97837.77;512053;1091;103176;-43
2021/08/01 07:59:06;;;;;;;6.50;4.43;;;;;;;19.83;60.56;97834.61;512154;1092;103111;-43
2021/08/01 08:09:13;;;;;;;7.43;3.83;;;;;;;19.68;60.29;97834.23;512057;1092;103512;-43
2021/08/01 08:19:19;;;;;;;7.77;3.93;;;;;;;19.53;60.32;97832.69;512041;1092;103135;-43
2021/08/01 08:29:27;;;;;;;8.53;4.27;;;;;;;19.51;60.28;97798.14;512028;1091;103629;-44
2021/08/01 08:39:35;;;;;;;7.18;3.73;;;;;;;20.00;60.58;97815.11;512122;1091;104212;-43
2021/08/01 08:49:45;;;;;;;9.33;3.30;;;;;;;19.98;59.90;97814.63;512147;1092;103218;-42
2021/08/01 08:59:52;;;;;;;8.30;3.90;;;;;;;19.90;60.14;97810.83;511960;1092;103109;-43
2021/08/01 09:09:59;;;;;;;6.50;4.20;;;;;;;19.65;59.89;97827.59;512069;1092;103221;-42
2021/08/01 09:20:21;;;;;;;7.77;4.50;;;;;;;19.49;60.34;97827.16;511871;1091;103464;-42
2021/08/01 09:30:41;;;;;;;5.07;4.20;;;;;;;19.55;60.74;97820.59;511950;1092;103499;-43
2021/08/01 09:41:03;;;;;;;7.57;4.40;;;;;;;19.55;61.50;97782.26;512028;1092;103569;-40
2021/08/01 09:51:13;;;;;;;8.85;4.45;;;;;;;19.50;61.63;97688.52;512101;1091;103492;-42
2021/08/01 10:01:21;;;;;;;8.80;4.23;;;;;;;19.27;62.84;97618.12;512289;1092;103586;-40
2021/08/01 10:11:28;;;;;;;7.87;5.53;;;;;;;19.64;63.44;97673.16;512236;1092;103153;-43
2021/08/01 10:21:37;;;;;;;12.10;6.27;;;;;;;20.84;63.74;97701.98;512069;1091;103146;-41
2021/08/01 10:31:49;;;;;;;10.30;5.90;;;;;;;21.83;62.96;97701.81;512053;1092;103527;-43
2021/08/01 10:41:57;;;;;;;12.93;6.93;;;;;;;21.59;62.74;97696.23;512109;1092;103569;-41
2021/08/01 10:52:09;;;;;;;12.40;7.23;;;;;;;21.32;62.39;97722.45;512165;1092;103137;-41
2021/08/01 11:02:18;;;;;;;9.20;7.50;;;;;;;21.55;62.80;97724.91;511986;1092;103138;-41
2021/08/01 11:12:34;;;;;;;7.97;7.17;;;;;;;21.82;62.24;97726.36;511963;1095;103109;-41
2021/08/01 11:33:04;;;;;;;11.85;7.85;;;;;;;23.46;61.43;97743.91;511907;1092;103191;-42
2021/08/01 11:43:13;;;;;;;12.17;8.23;;;;;;;23.44;60.41;97727.27;512086;1091;103435;-43
2021/08/01 11:53:21;;;;;;;11.60;8.63;;;;;;;23.36;60.21;97710.05;512036;1092;103129;-42
2021/08/01 12:13:34;;;;;;;17.33;10.40;;;;;;;23.62;59.69;97644.98;511947;1092;103148;-42
2021/08/01 12:23:42;;;;;;;14.07;12.00;;;;;;;24.12;59.52;97592.46;512035;1092;103265;-42
2021/08/01 12:33:49;;;;;;;16.07;12.07;;;;;;;24.50;59.25;97594.70;511937;1092;103409;-41
2021/08/01 12:43:57;;;;;;;13.57;10.83;;;;;;;25.11;58.94;97604.39;512094;1092;103127;-42
2021/08/01 12:54:04;;;;;;;12.78;10.95;;;;;;;24.78;58.26;97621.69;512188;1092;103150;-42
2021/08/01 13:04:12;;;;;;;12.83;10.20;;;;;;;24.38;58.41;97621.80;512200;1092;103636;-42
2021/08/01 13:14:31;;;;;;;12.37;10.67;;;;;;;24.14;58.37;97603.73;512106;1090;103166;-41
2021/08/01 13:24:42;;;;;;;14.67;11.53;;;;;;;23.95;58.56;97598.16;512425;1092;103169;-42
2021/08/01 13:34:53;;;;;;;16.93;10.70;;;;;;;24.38;58.62;97589.38;512298;1092;103458;-41
2021/08/01 13:44:59;;;;;;;16.97;11.40;;;;;;;24.54;58.42;97571.25;511962;1091;103156;-41
2021/08/01 13:55:08;;;;;;;14.63;12.53;;;;;;;24.13;58.28;97575.13;511958;1092;103134;-42
2021/08/01 14:05:16;;;;;;;17.37;11.07;;;;;;;24.10;58.67;97544.20;512030;1092;103133;-43
2021/08/01 14:15:23;;;;;;;12.47;10.90;;;;;;;23.90;58.54;97534.40;512251;1092;103137;-43
2021/08/01 14:25:32;;;;;;;13.53;11.73;;;;;;;23.72;58.66;97544.69;512020;1092;103505;-41
2021/08/01 14:35:44;;;;;;;18.20;12.03;;;;;;;23.67;59.33;97526.03;512037;1092;103059;-43
2021/08/01 14:45:49;;;;;;;14.73;11.90;;;;;;;23.75;59.04;97519.70;512174;1093;103486;-42
2021/08/01 14:56:01;;;;;;;14.77;12.60;;;;;;;23.79;59.24;97530.59;512151;1092;103170;-42
2021/08/01 15:06:10;;;;;;;14.60;11.70;;;;;;;23.53;59.42;97514.79;512126;1092;103122;-41
2021/08/01 15:16:18;;;;;;;15.13;12.63;;;;;;;23.33;59.59;97503.02;512048;1091;103502;-40
2021/08/01 15:26:26;;;;;;;12.10;10.37;;;;;;;23.55;59.91;97501.73;512106;1092;103466;-40
2021/08/01 15:36:36;;;;;;;15.87;11.40;;;;;;;23.52;59.98;97478.14;512182;1092;103127;-43
2021/08/01 15:46:47;;;;;;;15.27;10.90;;;;;;;23.36;60.01;97479.98;512107;1090;103125;-41
2021/08/01 15:57:01;;;;;;;11.63;10.40;;;;;;;23.12;60.04;97467.32;512174;1092;103543;-42
2021/08/01 16:07:20;;;;;;;12.50;11.30;;;;;;;23.00;60.83;97457.36;512003;1092;103046;-43
2021/08/01 16:17:25;;;;;;;15.37;10.10;;;;;;;22.85;60.91;97476.90;511850;1092;103604;-42
2021/08/01 16:27:35;;;;;;;12.30;11.10;;;;;;;22.65;61.32;97460.47;512067;1092;103148;-44
2021/08/01 16:37:45;;;;;;;15.50;11.40;;;;;;;22.00;62.91;97474.80;512183;1092;103114;-41
2021/08/01 16:48:03;;;;;;;11.70;6.93;;;;;;;20.86;65.00;97469.81;512030;1092;103166;-44
2021/08/01 16:58:10;;;;;;;8.97;5.67;;;;;;;20.36;65.55;97470.47;511977;1092;103136;-43
2021/08/01 17:18:38;;;;;;;10.33;6.70;;;;;;;19.75;67.55;97486.68;512031;1092;103246;-43
2021/08/01 17:28:50;;;;;;;6.50;5.07;;;;;;;19.43;68.40;97500.54;511983;1092;103111;-42
2021/08/01 17:39:02;;;;;;;10.20;5.75;;;;;;;19.00;69.51;97536.86;512153;1094;103511;-44
2021/08/01 17:49:10;;;;;;;6.30;4.73;;;;;;;18.51;71.37;97539.78;511926;1091;103231;-42
2021/08/01 17:59:18;;;;;;;10.23;5.00;;;;;;;18.09;72.15;97529.30;512207;1093;103430;-43
2021/08/01 18:09:25;;;;;;;;;;;;;;;17.70;72.58;97545.98;512012;1091;103443;-42
2021/08/01 18:19:33;;;;;;;7.77;4.93;;;;;;;17.29;73.15;97559.43;511929;1092;103109;-43
2021/08/01 18:29:43;;;;;;;5.93;5.20;;;;;;;17.05;73.36;97577.55;512191;1092;103114;-41
2021/08/01 18:39:51;;;;;;;8.80;5.60;;;;;;;16.95;74.01;97586.53;512180;1092;103148;-42
2021/08/01 18:50:01;;;;;;;8.75;7.83;;;;;;;16.77;75.49;97595.41;512028;1090;103133;-43
2021/08/01 19:00:11;;;;;;;11.60;6.00;;;;;;;16.52;75.31;97605.41;512024;1092;103152;-41
2021/08/01 19:10:20;;;;;;;7.25;6.05;;;;;;;16.33;75.83;97595.89;512175;1094;103639;-45
2021/08/01 19:20:34;;;;;;;7.68;5.75;;;;;;;16.11;76.67;97593.83;512209;1093;103150;-42
2021/08/01 19:30:47;;;;;;;7.03;6.33;;;;;;;16.07;76.85;97616.80;512131;1092;103212;-42
2021/08/01 19:40:56;;;;;;;7.33;5.60;;;;;;;16.04;77.18;97604.05;511986;1092;103137;-42
2021/08/01 19:51:03;;;;;;;11.55;6.83;;;;;;;15.90;77.76;97599.46;512081;1092;103112;-42
2021/08/01 20:01:12;;;;;;;8.43;5.37;;;;;;;15.84;77.77;97594.47;511830;1092;103125;-42
2021/08/01 20:11:21;;;;;;;5.10;4.60;;;;;;;15.71;78.17;97598.66;512120;1095;103434;-41
2021/08/01 20:21:28;;;;;;;4.93;4.23;;;;;;;15.60;78.35;97610.52;512057;1092;103153;-42
2021/08/01 20:31:35;;;;;;;8.70;5.13;;;;;;;15.52;79.10;97600.48;511890;1092;103138;-41
2021/08/01 20:41:42;;;;;;;12.03;6.27;;;;;;;15.44;79.77;97606.45;512096;1092;103127;-41
2021/08/01 20:51:49;;;;;;;6.00;5.40;;;;;;;15.43;79.85;97613.66;511984;1091;103111;-42
2021/08/01 21:01:57;;;;;;;5.40;4.90;;;;;;;15.44;80.13;97623.23;511973;1091;103172;-43
2021/08/01 21:12:03;;;;;;;8.03;4.63;;;;;;;15.50;79.90;97626.62;512011;1093;103129;-42
2021/08/01 21:22:11;;;;;;;7.00;6.10;;;;;;;15.51;80.38;97665.50;512045;1092;103492;-42
2021/08/01 21:32:19;;;;;;;11.20;7.30;;;;;;;15.39;80.72;97684.56;511962;1092;103169;-42
2021/08/01 21:42:27;;;;;;;7.70;6.90;;;;;;;15.33;80.83;97681.14;511964;1094;103108;-42
2021/08/01 21:52:34;;;;;;;6.58;4.90;;;;;;;15.26;81.54;97691.34;512131;1092;103125;-43
2021/08/01 22:02:45;;;;;;;6.23;5.50;;;;;;;15.08;82.12;97693.92;511973;1092;103576;-42
2021/08/01 22:12:55;;;;;;;8.03;5.10;;;;;;;14.99;82.12;97699.08;511917;1092;103126;-42
2021/08/01 22:23:03;;;;;;;5.33;4.83;;;;;;;14.90;82.48;97692.75;512016;1093;103057;-42
2021/08/01 22:33:10;;;;;;;4.80;4.40;;;;;;;14.89;82.64;97701.81;512034;1092;103475;-42
2021/08/01 22:43:18;;;;;;;5.20;4.80;;;;;;;14.89;82.08;97699.16;511788;1096;103137;-42
2021/08/01 22:53:26;;;;;;;9.50;5.90;;;;;;;14.92;82.09;97711.92;511996;1092;103147;-42
2021/08/01 23:03:37;;;;;;;6.60;5.68;;;;;;;14.82;82.29;97726.09;511841;1094;103138;-42
2021/08/01 23:13:43;;;;;;;7.23;5.60;;;;;;;14.62;82.52;97739.55;512113;1092;103526;-42
2021/08/01 23:23:52;;;;;;;8.35;4.75;;;;;;;14.56;82.34;97749.44;511948;1093;103432;-41
2021/08/01 23:34:01;;;;;;;5.48;4.18;;;;;;;14.56;82.10;97749.44;512186;1092;103130;-43
2021/08/01 23:44:09;;;;;;;8.70;4.83;;;;;;;14.51;82.02;97770.77;511984;1091;103140;-42
2021/08/01 23:54:20;;;;;;;6.30;5.47;;;;;;;14.60;82.17;97773.63;512208;1093;103179;-42
